5A6 weather

Winona–Montgomery County Airport
Winona, Mississippi, United States

Public forecast

Using degrees Fahrenheit for public forecast. Weather courtesy of forecast.io.

Current aviation weather report (METAR) for Winona–Montgomery County Airport

Retrieved UTC (0 seconds ago):

Closest aviation forecast (TAF) to Winona–Montgomery County Airport

Closest forecast is Greenwood–Leflore Airport, 17.9 nm (33.1 km) W. Retrieved 2020/05/30 18:48 UTC (3 hours ago):

TAF KGWO 301746Z 3018/3118 01008KT P6SM FEW050 FM310100 02009KT P6SM SKC